« Back
NWS Peachtree City, Ga » Text Product » AHN Terminal Aerodrome Forecast


Printer-friendly Version
Current Version              Previous Versions:   1  2  3  4  5  6  7  8  9  

Terminal Aerodrome Forecast

797
FTAK31 PAJN 251100
TAFAHN
TAF
PAHN 251120Z 2512/2612 30008KT P6SM -SHRA OVC015
     FM251800 30010KT P6SM VCSH SCT010 BKN025 OVC040
     FM252100 30010KT P6SM SCT020 BKN040
     FM260600 30010KT P6SM SKC
      AMD LTD TO CLD VIS AND WIND=

USA.gov is the U.S. government's official web portal to all federal, state and local government web resources and services.